Time;durP1;ratioP1;P1;durP2;ratioP2;P2;SDS_P1;SDS_P2;PMS_P1;PMS_P2;Temp;Humidity;BMP_temperature;BMP_pressure;BME280_temperature;BME280_humidity;BME280_pressure;Samples;Min_cycle;Max_cycle;Signal;HPM_P1;HPM_P2
2022/06/25 00:01:21;;;;;;;4.07;1.55;;;;;;;25.86;30.29;99376.25;4480251;31;33050;-85
2022/06/25 00:03:50;;;;;;;2.25;1.35;;;;;;;25.54;30.71;99378.06;4477786;31;32620;-85
2022/06/25 00:06:18;;;;;;;3.92;1.33;;;;;;;25.84;30.13;99377.47;4490632;31;33377;-85
2022/06/25 00:08:53;;;;;;;4.12;1.48;;;;;;;25.59;31.09;99373.94;4480865;31;33022;-85
2022/06/25 00:14:10;;;;;;;7.57;1.58;;;;;;;25.61;30.10;99364.66;4478448;31;34077;-85
2022/06/25 00:16:39;;;;;;;3.25;1.25;;;;;;;25.86;29.71;99364.59;4480294;31;33191;-86
2022/06/25 00:19:07;;;;;;;2.90;1.48;;;;;;;25.82;29.60;99358.69;4477959;31;33727;-87
2022/06/25 00:21:35;;;;;;;1.95;1.20;;;;;;;25.87;29.61;99361.72;4479125;31;33079;-86
2022/06/25 00:24:05;;;;;;;8.07;1.58;;;;;;;25.75;29.64;99361.28;4491784;31;34233;-84
2022/06/25 00:26:33;;;;;;;4.18;1.37;;;;;;;25.65;30.09;99355.19;4477622;31;34286;-84
2022/06/25 00:29:01;;;;;;;4.15;1.15;;;;;;;25.65;30.12;99359.75;4480175;31;32461;-83
2022/06/25 00:31:30;;;;;;;3.95;1.08;;;;;;;25.54;29.97;99350.16;4477803;31;33292;-84
2022/06/25 00:33:57;;;;;;;1.17;1.08;;;;;;;25.53;30.26;99351.16;4465959;31;33681;-85
2022/06/25 00:36:26;;;;;;;2.75;1.20;;;;;;;25.67;30.01;99346.91;4490770;31;34052;-85
2022/06/25 00:38:54;;;;;;;3.00;1.40;;;;;;;25.75;30.11;99352.28;4492552;31;33606;-84
2022/06/25 00:41:22;;;;;;;3.20;1.52;;;;;;;25.54;30.55;99359.13;4479032;31;32995;-87
2022/06/25 00:43:50;;;;;;;1.90;1.25;;;;;;;25.65;30.89;99352.50;4478956;31;34503;-86
2022/06/25 00:46:18;;;;;;;6.62;1.48;;;;;;;25.61;31.32;99356.56;4477797;31;33132;-86
2022/06/25 00:48:46;;;;;;;3.53;1.48;;;;;;;25.40;32.00;99348.16;4476605;31;33572;-86
2022/06/25 00:51:16;;;;;;;3.90;1.40;;;;;;;25.55;32.06;99354.56;4478260;31;34433;-86
2022/06/25 00:53:45;;;;;;;4.35;1.37;;;;;;;25.67;32.09;99355.84;4478770;31;33440;-85
2022/06/25 00:56:14;;;;;;;2.33;1.60;;;;;;;25.63;32.17;99359.91;4490665;31;34703;-85
2022/06/25 00:58:44;;;;;;;5.50;1.10;;;;;;;25.73;31.88;99360.59;4476323;31;33521;-84
2022/06/25 01:01:13;;;;;;;4.65;1.00;;;;;;;25.82;31.35;99358.69;4490381;31;33326;-85
2022/06/25 01:03:43;;;;;;;4.37;1.35;;;;;;;25.88;31.15;99355.31;4465183;31;31120;-85
2022/06/25 01:06:11;;;;;;;2.85;1.10;;;;;;;25.83;31.29;99364.94;4478754;31;33663;-85
2022/06/25 01:08:39;;;;;;;2.20;1.20;;;;;;;25.83;31.46;99370.34;4480386;31;32806;-85
2022/06/25 01:11:10;;;;;;;2.53;1.37;;;;;;;25.90;31.16;99371.34;4465904;31;33099;-85
2022/06/25 01:13:39;;;;;;;4.10;1.15;;;;;;;25.58;31.68;99367.72;4467293;31;34457;-83
2022/06/25 01:16:07;;;;;;;4.68;0.98;;;;;;;25.77;31.50;99367.34;4464695;31;33337;-83
2022/06/25 01:18:35;;;;;;;6.95;1.58;;;;;;;25.50;31.83;99365.06;4477378;31;32844;-83
2022/06/25 01:21:03;;;;;;;1.42;1.33;;;;;;;25.41;32.13;99377.75;4478162;31;32294;-83
2022/06/25 01:23:31;;;;;;;2.47;1.90;;;;;;;25.55;31.96;99384.28;4476602;31;33371;-83
2022/06/25 01:25:59;;;;;;;6.15;1.75;;;;;;;25.15;33.00;99388.75;4488884;31;33568;-83
2022/06/25 01:28:27;;;;;;;3.95;1.30;;;;;;;25.40;36.73;99372.50;4479155;31;33414;-83
2022/06/25 01:30:55;;;;;;;6.32;1.87;;;;;;;25.29;37.60;99369.13;4478689;31;33657;-83
2022/06/25 01:33:23;;;;;;;2.95;1.17;;;;;;;24.42;40.71;99367.94;4481300;31;34144;-82
2022/06/25 01:35:53;;;;;;;4.03;1.65;;;;;;;24.26;41.45;99371.44;4478149;31;33962;-82
2022/06/25 01:38:22;;;;;;;5.03;1.90;;;;;;;24.15;42.62;99374.41;4476549;31;32328;-83
2022/06/25 01:40:50;;;;;;;3.92;1.70;;;;;;;24.35;42.46;99368.72;4490561;31;33403;-83
2022/06/25 01:43:18;;;;;;;2.22;1.17;;;;;;;24.62;43.91;99370.31;4488820;31;34622;-84
2022/06/25 01:45:47;;;;;;;3.08;1.85;;;;;;;23.92;45.22;99376.87;4474354;31;33709;-83
2022/06/25 01:48:14;;;;;;;5.32;1.60;;;;;;;23.75;45.98;99367.87;4478070;31;33418;-83
2022/06/25 01:50:45;;;;;;;4.60;1.73;;;;;;;23.84;47.26;99370.63;4464759;31;32717;-83
2022/06/25 01:53:13;;;;;;;3.20;2.08;;;;;;;23.33;50.86;99367.78;4474970;31;33055;-85
2022/06/25 01:55:42;;;;;;;6.72;1.90;;;;;;;22.97;52.46;99370.56;4477160;31;33820;-85
2022/06/25 01:58:11;;;;;;;4.03;1.62;;;;;;;22.73;52.02;99368.50;4477193;31;33054;-85
2022/06/25 02:00:40;;;;;;;4.93;2.40;;;;;;;22.62;52.11;99379.50;4490902;31;34211;-83
2022/06/25 02:03:08;;;;;;;2.83;1.62;;;;;;;22.68;51.44;99367.28;4463476;31;33423;-83
2022/06/25 02:08:25;;;;;;;2.40;1.83;;;;;;;22.86;51.34;99370.78;4478666;31;33564;-83
2022/06/25 02:10:54;;;;;;;5.78;1.60;;;;;;;22.95;51.50;99360.97;4489247;31;35595;-83
2022/06/25 02:13:22;;;;;;;4.15;2.00;;;;;;;22.75;52.98;99379.97;4477234;31;34384;-83
2022/06/25 02:15:51;;;;;;;2.85;1.98;;;;;;;22.41;54.12;99387.91;4492630;31;33695;-83
2022/06/25 02:18:20;;;;;;;1.87;1.67;;;;;;;22.01;54.78;99385.56;4478270;31;32436;-83
2022/06/25 02:20:49;;;;;;;5.70;2.05;;;;;;;21.71;55.09;99384.88;4478647;31;32456;-84
2022/06/25 02:23:18;;;;;;;3.47;1.80;;;;;;;21.78;54.42;99384.25;4478708;31;33161;-84
2022/06/25 02:25:47;;;;;;;1.92;1.65;;;;;;;22.06;53.35;99377.88;4477223;31;32527;-84
2022/06/25 02:28:16;;;;;;;2.17;1.77;;;;;;;22.13;53.58;99381.72;4491483;31;33453;-83
2022/06/25 02:30:45;;;;;;;2.53;1.37;;;;;;;21.65;55.21;99379.25;4466224;31;31763;-83
2022/06/25 02:33:14;;;;;;;2.55;1.50;;;;;;;21.61;54.21;99378.69;4487877;31;35153;-84
2022/06/25 02:35:43;;;;;;;1.73;1.50;;;;;;;21.88;53.30;99368.94;4491882;31;33685;-83
2022/06/25 02:38:13;;;;;;;7.25;1.87;;;;;;;21.59;53.39;99375.28;4490497;31;33782;-83
2022/06/25 02:40:41;;;;;;;4.00;1.80;;;;;;;21.61;52.83;99376.00;4477421;31;32882;-83
2022/06/25 02:43:10;;;;;;;3.15;1.85;;;;;;;21.44;52.89;99376.75;4480599;31;33966;-83
2022/06/25 02:45:40;;;;;;;2.42;1.83;;;;;;;21.69;52.47;99381.47;4466498;31;32562;-84
2022/06/25 02:48:08;;;;;;;2.95;1.77;;;;;;;21.53;52.79;99386.63;4476198;31;33845;-84
2022/06/25 02:50:37;;;;;;;2.87;1.77;;;;;;;21.47;53.08;99393.44;4489181;31;33323;-84
2022/06/25 02:53:07;;;;;;;1.85;1.50;;;;;;;21.57;52.50;99393.41;4489662;31;33792;-83
2022/06/25 03:01:11;;;;;;;2.47;2.05;;;;;;;21.80;50.70;99393.88;4488409;31;33009;-84
2022/06/25 03:03:40;;;;;;;4.60;1.80;;;;;;;22.02;49.96;99389.09;4478356;31;33366;-84
2022/06/25 03:06:08;;;;;;;4.55;2.00;;;;;;;22.06;50.79;99387.78;4474312;31;33383;-84
2022/06/25 03:08:37;;;;;;;3.72;1.87;;;;;;;22.15;51.05;99381.56;4487747;31;33882;-84
2022/06/25 03:11:05;;;;;;;9.70;1.92;;;;;;;21.64;52.85;99393.66;4487461;31;34018;-84
2022/06/25 03:13:36;;;;;;;4.65;1.37;;;;;;;21.82;52.47;99385.66;4475912;31;34389;-84
2022/06/25 03:16:05;;;;;;;3.83;1.60;;;;;;;22.09;51.35;99388.34;4482022;31;32508;-84
2022/06/25 03:18:34;;;;;;;4.55;1.92;;;;;;;22.05;51.74;99392.34;4473974;31;32641;-83
2022/06/25 03:21:03;;;;;;;5.03;3.08;;;;;;;21.77;52.02;99387.94;4463254;31;34022;-83
2022/06/25 03:23:34;;;;;;;3.80;1.55;;;;;;;21.83;51.99;99385.50;4458843;31;32446;-83
2022/06/25 03:26:03;;;;;;;4.12;1.95;;;;;;;21.68;53.29;99385.16;4465144;31;33081;-84
2022/06/25 03:28:31;;;;;;;2.20;1.58;;;;;;;21.62;53.05;99380.38;4475590;31;34777;-83
2022/06/25 03:30:59;;;;;;;5.05;1.85;;;;;;;21.72;53.50;99383.84;4480627;31;34017;-83
2022/06/25 03:33:28;;;;;;;4.95;2.10;;;;;;;21.87;53.33;99378.00;4492647;31;33541;-83
2022/06/25 03:35:57;;;;;;;4.65;2.20;;;;;;;22.01;52.63;99382.88;4481386;31;33593;-83
2022/06/25 03:38:25;;;;;;;2.50;1.98;;;;;;;21.85;52.56;99374.63;4478314;31;33324;-83
2022/06/25 03:41:32;;;;;;;3.50;1.52;;;;;;;21.98;52.08;99380.47;4477729;31;32898;-83
2022/06/25 03:43:42;;;;;;;2.37;1.60;;;;;;;22.21;50.94;99387.16;4491753;31;33488;-84
2022/06/25 03:46:12;;;;;;;4.65;1.65;;;;;;;22.05;52.61;99378.88;4468183;31;33063;-84
2022/06/25 03:48:40;;;;;;;4.03;1.60;;;;;;;21.34;51.25;99392.06;4480830;31;32940;-83
2022/06/25 03:51:09;;;;;;;4.18;1.62;;;;;;;21.80;50.47;99393.03;4480195;31;32532;-83
2022/06/25 03:53:37;;;;;;;2.00;1.40;;;;;;;22.07;50.17;99397.53;4480235;31;33466;-83
2022/06/25 03:56:05;;;;;;;4.65;1.60;;;;;;;22.26;49.57;99405.53;4492719;31;33929;-83
2022/06/25 03:58:33;;;;;;;6.50;2.20;;;;;;;22.62;48.90;99401.03;4464893;31;31709;-83
2022/06/25 04:01:02;;;;;;;4.32;1.85;;;;;;;22.90;52.41;99409.06;4492458;31;33499;-83
2022/06/25 04:03:30;;;;;;;8.73;2.75;;;;;;;23.02;51.85;99412.34;4490364;31;32800;-83
2022/06/25 04:05:58;;;;;;;2.42;2.08;;;;;;;22.94;51.47;99399.69;4477693;31;33783;-83
2022/06/25 04:08:26;;;;;;;2.10;1.75;;;;;;;22.94;51.10;99402.38;4480067;31;35614;-83
2022/06/25 04:10:55;;;;;;;4.15;1.85;;;;;;;22.81;49.73;99401.88;4481282;31;33116;-84
2022/06/25 04:13:27;;;;;;;2.75;1.80;;;;;;;22.78;49.68;99405.72;4466238;31;32624;-83
2022/06/25 04:15:55;;;;;;;5.70;2.28;;;;;;;22.93;49.63;99419.50;4490580;31;33801;-83
2022/06/25 04:18:26;;;;;;;2.22;1.87;;;;;;;23.20;48.25;99414.00;4491869;31;33093;-84
2022/06/25 04:20:54;;;;;;;3.62;2.00;;;;;;;23.31;48.46;99412.91;4479561;31;33882;-83
2022/06/25 04:23:23;;;;;;;4.53;1.92;;;;;;;23.44;49.11;99417.88;4492452;31;33964;-83
2022/06/25 04:25:54;;;;;;;3.45;1.73;;;;;;;23.22;50.71;99419.25;4478219;31;34066;-83
2022/06/25 04:31:11;;;;;;;1.75;1.60;;;;;;;23.46;48.25;99419.41;4493253;31;33886;-83
2022/06/25 04:33:41;;;;;;;2.28;1.45;;;;;;;23.52;47.61;99426.84;4480133;31;33626;-83
2022/06/25 04:36:08;;;;;;;3.15;1.92;;;;;;;23.81;46.26;99428.41;4477358;31;33314;-83
2022/06/25 04:38:37;;;;;;;1.83;1.45;;;;;;;24.03;45.70;99427.00;4495813;31;33835;-83
2022/06/25 04:41:05;;;;;;;2.58;1.42;;;;;;;24.06;45.58;99426.66;4477634;31;34000;-83
2022/06/25 04:43:34;;;;;;;3.08;2.10;;;;;;;24.28;44.65;99428.75;4489419;31;33859;-83
2022/06/25 04:46:03;;;;;;;3.92;1.73;;;;;;;24.46;44.24;99430.53;4480727;31;34866;-83
2022/06/25 04:48:32;;;;;;;3.35;1.62;;;;;;;24.44;44.72;99432.53;4477120;31;31662;-84
2022/06/25 04:51:00;;;;;;;8.00;2.42;;;;;;;24.56;44.71;99442.03;4478059;31;32933;-84
2022/06/25 04:53:32;;;;;;;3.75;1.67;;;;;;;24.76;43.03;99442.56;4489289;31;33163;-84
2022/06/25 04:56:00;;;;;;;7.05;1.55;;;;;;;24.97;42.42;99437.53;4480581;31;32659;-83
2022/06/25 04:58:29;;;;;;;5.22;1.67;;;;;;;24.95;42.71;99441.41;4477720;31;34217;-83
2022/06/25 05:01:00;;;;;;;3.50;1.62;;;;;;;25.32;41.10;99445.50;4487066;31;33342;-83
2022/06/25 05:03:29;;;;;;;8.27;1.50;;;;;;;25.42;40.08;99444.28;4469859;31;33720;-83
2022/06/25 05:06:03;;;;;;;3.70;1.73;;;;;;;25.38;39.85;99442.94;4478722;31;33732;-83
2022/06/25 05:08:30;;;;;;;1.67;1.48;;;;;;;25.71;39.79;99432.91;4477806;31;33403;-83
2022/06/25 05:10:59;;;;;;;2.35;1.48;;;;;;;25.68;40.23;99433.25;4488626;31;32681;-84
2022/06/25 05:13:27;;;;;;;5.05;1.87;;;;;;;25.65;38.81;99438.16;4465380;31;33231;-85
2022/06/25 05:15:58;;;;;;;2.92;1.50;;;;;;;25.65;39.17;99435.47;4472795;31;32971;-85
2022/06/25 05:18:28;;;;;;;4.20;1.58;;;;;;;25.83;38.83;99432.56;4491302;31;33250;-83
2022/06/25 05:20:56;;;;;;;2.37;1.42;;;;;;;25.93;38.87;99442.19;4489366;31;33681;-83
2022/06/25 05:23:27;;;;;;;2.10;1.48;;;;;;;26.05;38.71;99439.91;4459816;31;34030;-83
2022/06/25 05:25:56;;;;;;;1.37;1.27;;;;;;;26.44;37.58;99444.50;4475606;31;33846;-83
2022/06/25 05:28:26;;;;;;;4.05;1.80;;;;;;;26.43;37.20;99443.66;4460223;31;31607;-84
2022/06/25 05:30:55;;;;;;;6.35;1.80;;;;;;;26.60;36.54;99455.25;4474784;31;33637;-84
2022/06/25 05:33:23;;;;;;;2.40;1.62;;;;;;;26.62;37.86;99450.50;4465321;31;33499;-84
2022/06/25 05:35:51;;;;;;;5.22;1.73;;;;;;;26.66;36.48;99446.41;4464596;31;32977;-84
2022/06/25 05:38:26;;;;;;;2.45;1.52;;;;;;;26.58;36.84;99443.75;4490262;31;34628;-84
2022/06/25 05:40:57;;;;;;;2.10;1.67;;;;;;;26.33;38.34;99448.44;4476187;31;34146;-84
2022/06/25 05:43:25;;;;;;;3.20;1.95;;;;;;;26.80;36.64;99442.94;4464813;31;33046;-84
2022/06/25 05:45:53;;;;;;;1.83;1.42;;;;;;;26.70;37.79;99445.03;4468080;31;32665;-84
2022/06/25 05:48:23;;;;;;;2.50;1.58;;;;;;;26.79;37.68;99443.97;4476076;31;32929;-84
2022/06/25 05:50:56;;;;;;;7.30;1.65;;;;;;;26.85;38.18;99449.69;4475309;31;31597;-84
2022/06/25 05:53:27;;;;;;;2.50;1.52;;;;;;;27.24;38.01;99450.41;4479848;31;33406;-84
2022/06/25 05:55:56;;;;;;;4.80;1.90;;;;;;;27.31;35.43;99448.66;4477808;31;33994;-84
2022/06/25 05:58:28;;;;;;;3.62;1.67;;;;;;;27.29;35.24;99450.69;4479619;31;33710;-84
2022/06/25 06:00:58;;;;;;;5.47;1.83;;;;;;;27.34;35.28;99462.84;4466715;31;33329;-84
2022/06/25 06:03:26;;;;;;;2.10;1.70;;;;;;;27.74;34.73;99465.22;4480078;31;32657;-84
2022/06/25 06:05:55;;;;;;;2.97;1.80;;;;;;;27.69;35.60;99462.19;4465689;31;33135;-85
2022/06/25 06:08:23;;;;;;;3.33;2.50;;;;;;;27.75;35.39;99461.47;4477733;31;32813;-84
2022/06/25 06:10:52;;;;;;;3.67;1.70;;;;;;;27.54;35.67;99459.47;4466486;31;32502;-85
2022/06/25 06:13:21;;;;;;;5.20;1.87;;;;;;;27.60;36.33;99460.59;4479528;31;33898;-84
2022/06/25 06:15:48;;;;;;;2.85;2.15;;;;;;;27.55;37.29;99460.28;4473874;31;33958;-84
2022/06/25 06:18:18;;;;;;;3.80;1.77;;;;;;;27.79;35.76;99467.37;4486655;31;34611;-84
2022/06/25 06:20:48;;;;;;;2.55;1.73;;;;;;;27.87;35.92;99464.56;4488369;31;33793;-84
2022/06/25 06:23:20;;;;;;;11.90;3.65;;;;;;;27.87;35.78;99456.44;4489206;31;33631;-85
2022/06/25 06:25:48;;;;;;;7.50;2.42;;;;;;;28.01;36.84;99455.59;4476384;31;33468;-84
2022/06/25 06:28:18;;;;;;;7.12;2.22;;;;;;;27.71;38.21;99460.16;4473023;31;33459;-85
2022/06/25 06:30:46;;;;;;;7.87;3.20;;;;;;;27.50;38.99;99458.13;4468463;31;32181;-85
2022/06/25 06:33:14;;;;;;;4.22;2.90;;;;;;;27.46;40.82;99458.69;4481983;31;34009;-84
2022/06/25 06:35:43;;;;;;;10.85;3.30;;;;;;;27.10;42.27;99464.75;4480653;31;32552;-85
2022/06/25 06:38:11;;;;;;;9.13;3.20;;;;;;;27.41;43.07;99464.66;4464092;31;34011;-85
2022/06/25 06:40:39;;;;;;;6.43;4.05;;;;;;;27.65;43.46;99466.28;4471008;31;32560;-85
2022/06/25 06:43:15;;;;;;;7.43;3.80;;;;;;;27.99;43.29;99470.38;4478481;31;32819;-85
2022/06/25 06:45:43;;;;;;;4.95;3.50;;;;;;;27.78;42.72;99474.69;4488104;31;34473;-85
2022/06/25 06:48:12;;;;;;;10.32;3.75;;;;;;;27.97;42.26;99478.72;4488229;31;33508;-85
2022/06/25 06:50:43;;;;;;;8.48;3.83;;;;;;;27.49;43.79;99482.75;4463507;31;33666;-84
2022/06/25 06:53:16;;;;;;;10.65;4.00;;;;;;;27.71;44.64;99489.13;4476198;31;33255;-82
2022/06/25 06:55:44;;;;;;;5.95;4.57;;;;;;;27.97;44.68;99486.00;4469821;31;34055;-83
2022/06/25 06:58:17;;;;;;;8.18;4.07;;;;;;;27.94;44.44;99502.66;4474832;31;32817;-84
2022/06/25 07:00:49;;;;;;;3.53;3.22;;;;;;;28.03;44.28;99509.69;4478309;31;31924;-84
2022/06/25 07:03:18;;;;;;;7.07;3.28;;;;;;;27.98;44.11;99504.81;4468865;31;32500;-83
2022/06/25 07:05:46;;;;;;;7.93;3.67;;;;;;;28.53;43.52;99510.78;4465501;31;33505;-84
2022/06/25 07:08:21;;;;;;;6.72;3.50;;;;;;;28.61;44.54;99507.97;4490792;31;33935;-83
2022/06/25 07:10:52;;;;;;;6.57;4.82;;;;;;;28.28;45.14;99516.50;4488915;31;32805;-84
2022/06/25 07:13:22;;;;;;;3.67;3.03;;;;;;;28.18;44.20;99509.69;4479961;31;33315;-84
2022/06/25 07:15:51;;;;;;;6.37;2.90;;;;;;;28.30;44.25;99511.75;4483747;31;33572;-85
2022/06/25 07:18:20;;;;;;;28.17;4.72;;;;;;;28.73;44.30;99506.47;4496580;31;33609;-84
2022/06/25 07:20:50;;;;;;;7.72;2.75;;;;;;;28.61;43.44;99505.25;4463335;31;32569;-84
2022/06/25 07:23:22;;;;;;;5.05;2.60;;;;;;;28.71;43.08;99508.50;4469086;31;33147;-84
2022/06/25 07:28:41;;;;;;;6.22;3.08;;;;;;;29.04;41.91;99516.22;4488287;31;34594;-84
2022/06/25 07:31:11;;;;;;;9.73;3.95;;;;;;;28.86;43.32;99513.06;4477056;31;33809;-84
2022/06/25 07:33:40;;;;;;;5.37;3.45;;;;;;;28.63;44.06;99497.78;4481529;31;32967;-84
2022/06/25 07:36:13;;;;;;;3.80;2.87;;;;;;;29.11;43.49;99510.88;4478284;31;34193;-84
2022/06/25 07:38:47;;;;;;;4.60;2.97;;;;;;;28.99;45.02;99513.25;4487832;31;33706;-84
2022/06/25 07:41:17;;;;;;;3.45;2.83;;;;;;;28.81;43.35;99503.59;4478631;31;33508;-84
2022/06/25 07:43:45;;;;;;;3.70;3.22;;;;;;;28.91;43.64;99505.16;4476286;31;33603;-84
2022/06/25 07:48:51;;;;;;;7.12;2.65;;;;;;;28.99;43.95;99522.22;4481756;31;32586;-84
2022/06/25 07:54:08;;;;;;;5.78;2.65;;;;;;;28.98;43.71;99523.28;4479423;31;32729;-84
2022/06/25 07:56:36;;;;;;;7.15;2.60;;;;;;;28.97;43.86;99520.75;4479055;31;32743;-84
2022/06/25 07:59:05;;;;;;;2.70;1.95;;;;;;;28.88;45.06;99527.31;4501973;31;32952;-84
2022/06/25 08:01:34;;;;;;;3.97;2.10;;;;;;;29.21;43.29;99528.53;4480332;31;32990;-84
2022/06/25 08:04:05;;;;;;;4.00;2.33;;;;;;;29.02;43.48;99537.31;4487852;31;34217;-85
2022/06/25 08:06:38;;;;;;;5.00;2.00;;;;;;;28.81;43.53;99533.50;4485117;31;33553;-84
2022/06/25 08:09:11;;;;;;;9.95;2.60;;;;;;;29.16;44.11;99536.44;4468615;31;33175;-84
2022/06/25 08:11:40;;;;;;;3.28;2.17;;;;;;;29.22;42.62;99540.25;4467975;31;33071;-84
2022/06/25 08:14:08;;;;;;;4.35;2.10;;;;;;;28.97;43.31;99547.94;4477634;31;34592;-84
2022/06/25 08:16:38;;;;;;;2.33;2.12;;;;;;;29.44;42.87;99544.66;4491117;31;33588;-84
2022/06/25 08:19:06;;;;;;;10.13;2.25;;;;;;;28.83;42.95;99557.78;4485837;31;33099;-84
2022/06/25 08:21:36;;;;;;;4.20;2.20;;;;;;;29.39;42.99;99557.13;4481718;31;32803;-84
2022/06/25 08:24:06;;;;;;;3.40;2.20;;;;;;;29.19;42.09;99556.94;4470390;31;32620;-84
2022/06/25 08:26:39;;;;;;;;;;;;;;;28.69;42.95;99559.50;4475760;31;33744;-84
2022/06/25 08:29:08;;;;;;;8.32;2.55;;;;;;;28.49;44.20;99556.53;4466087;31;33079;-84
2022/06/25 08:34:16;;;;;;;6.07;2.28;;;;;;;28.52;44.35;99558.84;4491235;31;33813;-84
2022/06/25 08:36:45;;;;;;;5.87;2.35;;;;;;;28.69;43.81;99562.19;4488695;31;34877;-84
2022/06/25 08:39:14;;;;;;;5.57;2.60;;;;;;;28.42;44.17;99561.00;4488737;31;32622;-85
2022/06/25 08:41:43;;;;;;;4.70;2.53;;;;;;;28.40;43.50;99567.66;4477142;31;32603;-84
2022/06/25 08:44:12;;;;;;;6.85;2.28;;;;;;;28.78;44.15;99561.06;4487565;31;33552;-84
2022/06/25 08:46:42;;;;;;;5.68;3.47;;;;;;;28.54;43.29;99566.81;4487169;31;34350;-84
2022/06/25 08:49:11;;;;;;;3.45;2.50;;;;;;;28.92;42.78;99577.53;4465858;31;32949;-84
2022/06/25 08:51:47;;;;;;;2.55;2.35;;;;;;;29.11;42.86;99566.06;4477445;31;33113;-84
2022/06/25 08:54:20;;;;;;;12.95;5.53;;;;;;;29.12;42.24;99562.31;4493325;31;33548;-85
2022/06/25 08:56:58;;;;;;;8.85;4.43;;;;;;;29.11;42.22;99568.81;4466514;31;32585;-84
2022/06/25 08:59:31;;;;;;;5.75;2.72;;;;;;;29.49;42.09;99568.56;4478523;31;33195;-84
2022/06/25 09:01:58;;;;;;;2.60;2.15;;;;;;;29.52;42.31;99568.16;4482109;31;34065;-84
2022/06/25 09:04:27;;;;;;;3.87;2.95;;;;;;;29.37;41.71;99565.50;4489724;31;34609;-84
2022/06/25 09:07:13;;;;;;;4.43;2.28;;;;;;;29.67;41.88;99566.22;4483657;31;34416;-84
2022/06/25 09:09:49;;;;;;;4.40;2.15;;;;;;;29.82;40.52;99558.84;4472544;31;232624;-85
2022/06/25 09:12:18;;;;;;;3.97;2.72;;;;;;;29.97;40.48;99560.63;4467410;31;33116;-84
2022/06/25 09:14:47;;;;;;;2.42;1.92;;;;;;;29.69;41.56;99569.59;4470512;31;33627;-84
2022/06/25 09:17:20;;;;;;;2.17;1.95;;;;;;;29.68;40.90;99567.94;4477641;31;32997;-84
2022/06/25 09:19:54;;;;;;;5.75;2.12;;;;;;;29.92;41.31;99568.53;4482163;31;33566;-85
2022/06/25 09:22:23;;;;;;;4.15;2.40;;;;;;;29.76;42.12;99575.09;4485520;31;30279;-84
2022/06/25 09:24:53;;;;;;;6.32;2.50;;;;;;;30.02;40.21;99569.03;4479362;31;34425;-85
2022/06/25 09:27:36;;;;;;;5.93;2.25;;;;;;;29.89;40.50;99566.19;4496458;31;33638;-85
2022/06/25 09:30:09;;;;;;;4.12;2.50;;;;;;;30.39;39.95;99570.56;4488518;31;33011;-84
2022/06/25 09:32:48;;;;;;;9.68;2.92;;;;;;;30.24;38.81;99573.41;4478925;31;32653;-84
2022/06/25 09:35:39;;;;;;;3.80;2.17;;;;;;;30.57;39.54;99572.72;4468960;31;32874;-84
2022/06/25 09:38:16;;;;;;;5.32;2.30;;;;;;;30.82;38.05;99576.66;4478231;31;32991;-84
2022/06/25 09:40:56;;;;;;;4.20;2.87;;;;;;;30.91;38.40;99573.75;4465069;31;33155;-84
2022/06/25 09:43:36;;;;;;;4.37;1.80;;;;;;;30.87;38.31;99572.50;4487122;31;33402;-84
2022/06/25 09:46:07;;;;;;;5.03;2.08;;;;;;;30.84;37.75;99571.00;4480141;31;32983;-84
2022/06/25 09:48:42;;;;;;;2.62;2.42;;;;;;;30.56;39.44;99566.44;4494042;31;34552;-84
2022/06/25 09:51:19;;;;;;;3.78;1.52;;;;;;;30.63;38.68;99571.94;4477506;31;33135;-84
2022/06/25 09:54:03;;;;;;;6.28;1.83;;;;;;;30.38;38.84;99576.19;4489450;31;32943;-84
2022/06/25 09:56:33;;;;;;;5.07;2.60;;;;;;;30.64;38.02;99568.16;4490635;31;33266;-84
2022/06/25 09:59:02;;;;;;;4.12;2.00;;;;;;;31.11;38.22;99570.06;4469278;31;33074;-84
2022/06/25 10:01:32;;;;;;;3.78;1.70;;;;;;;30.80;37.47;99573.28;4476432;31;34520;-84
2022/06/25 10:04:03;;;;;;;3.80;2.15;;;;;;;30.85;37.43;99568.06;4488237;31;32548;-84
2022/06/25 10:06:34;;;;;;;;;;;;;;;31.27;36.76;99563.41;4488063;31;33597;-84
2022/06/25 10:09:06;;;;;;;2.20;2.00;;;;;;;31.34;37.16;99561.53;4491793;31;33794;-84
2022/06/25 10:11:39;;;;;;;2.50;1.70;;;;;;;31.28;37.05;99556.88;4492763;31;33822;-84
2022/06/25 10:14:09;;;;;;;6.40;2.00;;;;;;;30.71;38.42;99558.16;4488073;31;32798;-84
2022/06/25 10:16:44;;;;;;;1.75;1.65;;;;;;;31.09;37.26;99560.38;4480266;31;34477;-85
2022/06/25 10:19:17;;;;;;;3.90;2.20;;;;;;;30.87;37.29;99551.53;4484997;31;33028;-85
2022/06/25 10:21:45;;;;;;;6.50;2.00;;;;;;;31.12;35.98;99540.91;4474098;31;33241;-85
2022/06/25 10:24:15;;;;;;;1.60;1.50;;;;;;;31.00;38.14;99545.25;4478196;31;34228;-85
2022/06/25 10:26:43;;;;;;;3.03;1.73;;;;;;;30.65;37.58;99545.31;4491542;31;33875;-84
2022/06/25 10:29:28;;;;;;;1.90;1.67;;;;;;;31.00;37.74;99546.13;4474110;31;33362;-84
2022/06/25 10:32:16;;;;;;;4.28;1.75;;;;;;;31.42;36.21;99540.53;4491149;31;33867;-84
2022/06/25 10:34:57;;;;;;;2.25;1.52;;;;;;;31.62;34.82;99544.16;4489647;31;34020;-84
2022/06/25 10:37:27;;;;;;;3.10;1.90;;;;;;;31.47;35.54;99541.59;4483887;31;33510;-84
2022/06/25 10:45:26;;;;;;;5.55;2.20;;;;;;;31.25;34.64;99527.28;4484766;31;33120;-84
2022/06/25 10:47:57;;;;;;;3.20;1.90;;;;;;;31.32;34.87;99528.16;4473630;31;33063;-84
2022/06/25 10:50:27;;;;;;;2.92;2.28;;;;;;;31.10;35.46;99524.75;4491850;31;33697;-84
2022/06/25 10:53:01;;;;;;;44.83;31.15;;;;;;;31.26;35.18;99515.31;4482623;31;33105;-84
2022/06/25 10:55:35;;;;;;;7.57;3.62;;;;;;;31.64;35.52;99512.00;4477168;31;32019;-85
2022/06/25 10:58:24;;;;;;;9.88;4.07;;;;;;;31.75;34.60;99510.53;4489352;31;34813;-85
2022/06/25 11:00:55;;;;;;;6.68;3.37;;;;;;;31.82;35.84;99514.97;4483357;31;33113;-85
2022/06/25 11:03:31;;;;;;;10.90;9.85;;;;;;;31.98;34.39;99510.12;4466247;31;33819;-84
2022/06/25 11:06:29;;;;;;;5.85;3.35;;;;;;;32.12;35.23;99509.88;4489110;31;33263;-84
2022/06/25 11:09:05;;;;;;;3.87;3.30;;;;;;;32.29;34.17;99513.00;4482926;31;33986;-84
2022/06/25 11:11:37;;;;;;;4.28;1.70;;;;;;;32.18;36.15;99505.44;4497999;31;31748;-84
2022/06/25 11:14:18;;;;;;;31.95;24.08;;;;;;;32.20;33.80;99503.34;4479695;31;32842;-85
2022/06/25 11:16:47;;;;;;;7.12;1.80;;;;;;;32.37;34.02;99509.19;4472118;31;33080;-84
2022/06/25 11:19:17;;;;;;;10.90;8.32;;;;;;;32.12;33.83;99517.22;4485589;31;33081;-84
2022/06/25 11:21:52;;;;;;;11.48;7.87;;;;;;;32.28;33.83;99505.00;4493951;31;33240;-84
2022/06/25 11:24:26;;;;;;;4.00;2.80;;;;;;;32.40;32.55;99502.47;4492784;31;34361;-84
2022/06/25 11:29:52;;;;;;;5.25;2.33;;;;;;;31.94;33.76;99503.41;4482209;31;33162;-84
2022/06/25 11:32:24;;;;;;;4.07;1.70;;;;;;;32.11;34.47;99519.13;4483295;31;34814;-85
2022/06/25 11:35:03;;;;;;;3.22;1.30;;;;;;;32.13;32.69;99508.81;4476277;31;32792;-84
2022/06/25 11:37:39;;;;;;;6.87;4.32;;;;;;;32.21;32.74;99507.75;4477683;31;32686;-84
2022/06/25 11:40:14;;;;;;;3.17;1.15;;;;;;;31.75;34.47;99511.38;4466545;31;32778;-84
2022/06/25 11:42:44;;;;;;;1.40;1.30;;;;;;;32.04;32.72;99507.34;4501692;31;33998;-84
2022/06/25 11:45:23;;;;;;;3.83;3.42;;;;;;;32.27;32.53;99508.78;4479172;31;33111;-85
2022/06/25 11:47:56;;;;;;;2.70;1.25;;;;;;;32.13;32.51;99508.81;4470815;31;32630;-84
2022/06/25 11:50:31;;;;;;;1.35;1.02;;;;;;;32.02;33.47;99503.19;4483762;31;33089;-86
2022/06/25 11:53:00;;;;;;;0.88;0.88;;;;;;;32.04;34.52;99498.34;4479340;31;33425;-86
2022/06/25 11:55:28;;;;;;;2.17;0.88;;;;;;;32.14;34.15;99501.44;4481239;31;33030;-86
2022/06/25 11:58:02;;;;;;;1.30;1.20;;;;;;;32.22;32.58;99497.66;4475752;31;31224;-86
2022/06/25 12:00:33;;;;;;;4.00;1.42;;;;;;;32.63;32.50;99492.69;4477864;31;33243;-86
2022/06/25 12:03:05;;;;;;;3.92;1.30;;;;;;;32.52;32.89;99484.31;4488797;31;35101;-86
2022/06/25 12:05:36;;;;;;;1.80;1.40;;;;;;;32.95;33.15;99486.44;4480131;31;33930;-86
2022/06/25 12:08:09;;;;;;;1.20;0.88;;;;;;;32.80;31.21;99482.09;4481913;31;33880;-86
2022/06/25 12:10:41;;;;;;;3.20;1.20;;;;;;;32.45;31.32;99480.81;4478260;31;33686;-86
2022/06/25 12:13:10;;;;;;;1.70;1.08;;;;;;;32.53;32.59;99481.41;4467023;31;33925;-86
2022/06/25 12:15:38;;;;;;;2.42;1.30;;;;;;;32.53;32.09;99475.94;4480700;31;32100;-86
2022/06/25 12:18:09;;;;;;;1.85;1.42;;;;;;;32.81;32.45;99472.84;4487952;31;33157;-85
2022/06/25 12:20:56;;;;;;;2.95;1.98;;;;;;;32.81;32.60;99475.56;4463481;31;33155;-86
2022/06/25 12:23:25;;;;;;;0.88;0.88;;;;;;;32.44;33.42;99466.31;4488000;31;34481;-86